Time;durP1;ratioP1;P1;durP2;ratioP2;P2;SDS_P1;SDS_P2;PMS_P1;PMS_P2;Temp;Humidity;BMP_temperature;BMP_pressure;BME280_temperature;BME280_humidity;BME280_pressure;Samples;Min_cycle;Max_cycle;Signal;HPM_P1;HPM_P2
2022/04/09 00:00:02;;;;;;;7.03;2.78;;;;;;;;;;5054495;28;20036;-82
2022/04/09 00:02:49;;;;;;;12.18;3.65;;;;;;;;;;5054172;28;20045;-83
2022/04/09 00:05:35;;;;;;;6.50;2.22;;;;;;;;;;5054411;28;20045;-84
2022/04/09 00:08:24;;;;;;;3.30;1.73;;;;;;;;;;5054191;28;20045;-85
2022/04/09 00:11:14;;;;;;;4.90;1.85;;;;;;;;;;5054495;28;20501;-87
2022/04/09 00:13:59;;;;;;;6.45;2.72;;;;;;;;;;5045855;28;20052;-83
2022/04/09 00:16:45;;;;;;;7.43;2.97;;;;;;;;;;5054485;28;20052;-83
2022/04/09 00:19:30;;;;;;;7.82;2.75;;;;;;;;;;5056276;28;20053;-83
2022/04/09 00:22:15;;;;;;;8.85;3.25;;;;;;;;;;5053280;28;20045;-84
2022/04/09 00:25:11;;;;;;;6.85;2.80;;;;;;;;;;5060959;28;20049;-83
2022/04/09 00:27:56;;;;;;;9.27;3.10;;;;;;;;;;5059431;28;20478;-85
2022/04/09 00:30:43;;;;;;;7.60;3.50;;;;;;;;;;5046008;28;20052;-83
2022/04/09 00:33:28;;;;;;;8.90;3.05;;;;;;;;;;5059762;28;20052;-84
2022/04/09 00:36:13;;;;;;;7.90;3.08;;;;;;;;;;5053086;28;20044;-84
2022/04/09 00:38:59;;;;;;;13.82;5.07;;;;;;;;;;5053405;28;20053;-85
2022/04/09 00:41:49;;;;;;;11.88;4.75;;;;;;;;;;5075804;28;20397;-85
2022/04/09 00:44:36;;;;;;;8.18;3.80;;;;;;;;;;5063976;28;20040;-81
2022/04/09 00:47:21;;;;;;;11.82;5.13;;;;;;;;;;5065839;28;20371;-81
2022/04/09 00:50:12;;;;;;;10.35;4.05;;;;;;;;;;5051780;28;20044;-83
2022/04/09 00:53:01;;;;;;;10.52;3.38;;;;;;;;;;5063141;28;20040;-84
2022/04/09 00:58:56;;;;;;;8.18;3.47;;;;;;;;;;5063169;28;20056;-83
2022/04/09 01:01:41;;;;;;;4.82;2.95;;;;;;;;;;5052166;28;20048;-83
2022/04/09 01:04:30;;;;;;;7.43;3.05;;;;;;;;;;5064809;28;20045;-86
2022/04/09 01:07:20;;;;;;;8.13;3.30;;;;;;;;;;5062636;28;20044;-84
2022/04/09 01:10:10;;;;;;;9.00;3.25;;;;;;;;;;5065329;28;20040;-84
2022/04/09 01:12:55;;;;;;;8.70;3.50;;;;;;;;;;5049338;28;20048;-84
2022/04/09 01:15:42;;;;;;;15.00;4.20;;;;;;;;;;5064857;28;20048;-86
2022/04/09 01:18:31;;;;;;;8.63;3.50;;;;;;;;;;5061904;28;20048;-85
2022/04/09 01:21:24;;;;;;;4.50;2.38;;;;;;;;;;5048443;28;20045;-85
2022/04/09 01:24:12;;;;;;;7.25;2.30;;;;;;;;;;5045101;28;20057;-82
2022/04/09 01:27:06;;;;;;;5.95;2.90;;;;;;;;;;5045338;28;20049;-87
2022/04/09 01:29:55;;;;;;;6.32;2.70;;;;;;;;;;5046162;28;20045;-84
2022/04/09 01:32:40;;;;;;;7.88;3.17;;;;;;;;;;5059793;28;20053;-83
2022/04/09 01:35:26;;;;;;;9.75;2.88;;;;;;;;;;5059529;28;20052;-84
2022/04/09 01:38:12;;;;;;;8.70;2.90;;;;;;;;;;5058922;28;20052;-83
2022/04/09 01:40:58;;;;;;;8.77;3.00;;;;;;;;;;5058988;28;20049;-84
2022/04/09 01:43:49;;;;;;;7.20;3.08;;;;;;;;;;5058685;28;20045;-86
2022/04/09 01:46:34;;;;;;;8.43;3.30;;;;;;;;;;5045761;28;20045;-85
2022/04/09 01:49:19;;;;;;;8.77;3.13;;;;;;;;;;5045454;28;20053;-84
2022/04/09 01:52:07;;;;;;;7.18;2.50;;;;;;;;;;5059492;28;20397;-84
2022/04/09 01:54:53;;;;;;;8.18;2.20;;;;;;;;;;5062561;28;20057;-84
2022/04/09 01:57:39;;;;;;;5.28;2.22;;;;;;;;;;5048397;28;20429;-85
2022/04/09 02:00:26;;;;;;;6.43;2.50;;;;;;;;;;5048985;28;20041;-83
2022/04/09 02:03:12;;;;;;;7.68;2.47;;;;;;;;;;5063487;28;20048;-82
2022/04/09 02:05:58;;;;;;;9.07;2.13;;;;;;;;;;5063416;28;20045;-83
2022/04/09 02:08:45;;;;;;;3.22;1.63;;;;;;;;;;5062786;28;20040;-84
2022/04/09 02:11:31;;;;;;;8.15;1.90;;;;;;;;;;5048440;28;20049;-84
2022/04/09 02:14:16;;;;;;;7.25;2.28;;;;;;;;;;5056903;28;20053;-85
2022/04/09 02:17:02;;;;;;;4.85;1.67;;;;;;;;;;5062297;28;20048;-84
2022/04/09 02:19:47;;;;;;;5.13;1.70;;;;;;;;;;5058040;28;20049;-84
2022/04/09 02:22:39;;;;;;;3.83;1.38;;;;;;;;;;5057090;28;20044;-86
2022/04/09 02:25:24;;;;;;;5.15;1.63;;;;;;;;;;5041731;28;20044;-85
2022/04/09 02:28:10;;;;;;;7.68;1.90;;;;;;;;;;5057644;28;20049;-84
2022/04/09 02:30:55;;;;;;;6.38;1.80;;;;;;;;;;5062900;28;20045;-84
2022/04/09 02:33:56;;;;;;;6.72;1.60;;;;;;;;;;5048224;28;20489;-84
2022/04/09 02:36:42;;;;;;;6.78;1.67;;;;;;;;;;5048187;28;20053;-84
2022/04/09 02:39:28;;;;;;;7.43;1.75;;;;;;;;;;5062332;28;20401;-85
2022/04/09 02:42:14;;;;;;;4.97;1.55;;;;;;;;;;5063050;28;20469;-83
2022/04/09 02:44:59;;;;;;;3.80;1.67;;;;;;;;;;5048459;28;20041;-83
2022/04/09 02:47:44;;;;;;;7.03;1.83;;;;;;;;;;5062044;28;20045;-81
2022/04/09 02:50:34;;;;;;;8.38;1.65;;;;;;;;;;5062830;28;20509;-84
2022/04/09 02:53:20;;;;;;;6.50;1.80;;;;;;;;;;5047652;28;20049;-84
2022/04/09 02:56:06;;;;;;;5.88;2.13;;;;;;;;;;5061380;28;20462;-84
2022/04/09 02:58:56;;;;;;;7.50;1.95;;;;;;;;;;5047197;28;20041;-82
2022/04/09 03:01:46;;;;;;;5.90;1.98;;;;;;;;;;5061109;28;20490;-83
2022/04/09 03:04:33;;;;;;;6.20;1.58;;;;;;;;;;5049806;28;20044;-85
2022/04/09 03:07:18;;;;;;;5.68;1.77;;;;;;;;;;5058736;28;20478;-86
2022/04/09 03:10:05;;;;;;;6.40;2.10;;;;;;;;;;5054824;28;20049;-83
2022/04/09 03:12:51;;;;;;;6.65;1.98;;;;;;;;;;5066063;28;20041;-84
2022/04/09 03:15:36;;;;;;;5.35;1.85;;;;;;;;;;5049285;28;20477;-82
2022/04/09 03:18:22;;;;;;;9.50;2.60;;;;;;;;;;5041989;28;20056;-83
2022/04/09 03:21:07;;;;;;;8.43;2.30;;;;;;;;;;5046784;28;20581;-84
2022/04/09 03:23:56;;;;;;;7.20;2.40;;;;;;;;;;5060771;28;20040;-83
2022/04/09 03:26:41;;;;;;;6.90;2.13;;;;;;;;;;5061064;28;20053;-83
2022/04/09 03:29:28;;;;;;;5.93;2.05;;;;;;;;;;5054842;28;20041;-84
2022/04/09 03:32:13;;;;;;;10.73;4.10;;;;;;;;;;5060709;28;20053;-83
2022/04/09 03:35:00;;;;;;;10.38;3.10;;;;;;;;;;5046803;28;20469;-84
2022/04/09 03:37:48;;;;;;;7.75;2.30;;;;;;;;;;5063553;28;20049;-84
2022/04/09 03:40:39;;;;;;;4.78;2.00;;;;;;;;;;5060719;28;20045;-84
2022/04/09 03:43:26;;;;;;;6.80;1.92;;;;;;;;;;5046260;28;20049;-83
2022/04/09 03:46:11;;;;;;;6.07;1.80;;;;;;;;;;5065737;28;20048;-84
2022/04/09 03:48:57;;;;;;;5.00;1.60;;;;;;;;;;5074294;28;20040;-85
2022/04/09 03:51:42;;;;;;;6.72;2.42;;;;;;;;;;5065646;28;20044;-82
2022/04/09 03:54:32;;;;;;;5.28;1.75;;;;;;;;;;5057397;28;20401;-84
2022/04/09 03:57:19;;;;;;;7.22;1.92;;;;;;;;;;5052178;28;20045;-83
2022/04/09 04:00:09;;;;;;;6.75;2.05;;;;;;;;;;5053310;28;20405;-83
2022/04/09 04:02:59;;;;;;;8.85;1.75;;;;;;;;;;5074122;28;20048;-83
2022/04/09 04:05:48;;;;;;;4.70;1.63;;;;;;;;;;5066335;28;20040;-83
2022/04/09 04:08:34;;;;;;;7.57;1.58;;;;;;;;;;5059813;28;20477;-82
2022/04/09 04:11:20;;;;;;;6.38;1.80;;;;;;;;;;5055668;28;20044;-85
2022/04/09 04:14:06;;;;;;;7.57;1.60;;;;;;;;;;5055884;28;20036;-83
2022/04/09 04:16:53;;;;;;;5.95;1.90;;;;;;;;;;5064567;28;20044;-84
2022/04/09 04:19:39;;;;;;;6.22;2.05;;;;;;;;;;5062150;28;20127;-84
2022/04/09 04:22:24;;;;;;;7.60;1.77;;;;;;;;;;5079810;28;20044;-85
2022/04/09 04:25:10;;;;;;;6.85;2.05;;;;;;;;;;5065645;28;20473;-82
2022/04/09 04:27:57;;;;;;;7.85;2.72;;;;;;;;;;5080128;28;20044;-85
2022/04/09 04:30:44;;;;;;;6.97;2.50;;;;;;;;;;5066038;28;20044;-85
2022/04/09 04:33:32;;;;;;;10.57;2.50;;;;;;;;;;5065865;28;20048;-85
2022/04/09 04:36:17;;;;;;;7.57;2.65;;;;;;;;;;5066304;28;20052;-81
2022/04/09 04:39:03;;;;;;;10.75;4.57;;;;;;;;;;5066004;28;20056;-84
2022/04/09 04:41:49;;;;;;;7.43;2.22;;;;;;;;;;5079517;28;20088;-82
2022/04/09 04:44:36;;;;;;;4.53;1.90;;;;;;;;;;5066776;28;20044;-82
2022/04/09 04:47:22;;;;;;;7.70;2.17;;;;;;;;;;5065133;28;20049;-82
2022/04/09 04:50:09;;;;;;;11.18;1.95;;;;;;;;;;5079567;28;20045;-86
2022/04/09 04:52:55;;;;;;;6.43;1.95;;;;;;;;;;5052680;28;20454;-85
2022/04/09 04:55:44;;;;;;;6.07;1.85;;;;;;;;;;5060116;28;20406;-82
2022/04/09 04:58:31;;;;;;;6.32;1.98;;;;;;;;;;5073350;28;20057;-86
2022/04/09 05:01:20;;;;;;;13.93;6.63;;;;;;;;;;5066077;28;20040;-84
2022/04/09 05:04:11;;;;;;;6.45;4.00;;;;;;;;;;5065602;28;20040;-83
2022/04/09 05:07:17;;;;;;;7.93;2.20;;;;;;;;;;5080661;28;20044;-85
2022/04/09 05:10:07;;;;;;;6.10;2.40;;;;;;;;;;5065759;28;20466;-83
2022/04/09 05:12:54;;;;;;;8.52;2.83;;;;;;;;;;5079497;28;20044;-82
2022/04/09 05:15:40;;;;;;;8.30;3.20;;;;;;;;;;5079764;28;20048;-83
2022/04/09 05:18:26;;;;;;;10.48;4.20;;;;;;;;;;5079014;28;20052;-84
2022/04/09 05:21:14;;;;;;;8.15;3.42;;;;;;;;;;5065118;28;20040;-84
2022/04/09 05:24:00;;;;;;;7.95;2.88;;;;;;;;;;5080076;28;20477;-83
2022/04/09 05:26:45;;;;;;;4.03;1.90;;;;;;;;;;5069794;28;20048;-82
2022/04/09 05:29:32;;;;;;;7.45;2.85;;;;;;;;;;5086209;28;20040;-83
2022/04/09 05:32:18;;;;;;;6.60;2.42;;;;;;;;;;5051292;28;20049;-82
2022/04/09 05:35:04;;;;;;;8.82;2.92;;;;;;;;;;5076014;28;20048;-84
2022/04/09 05:37:51;;;;;;;5.18;2.33;;;;;;;;;;5086417;28;20048;-81
2022/04/09 05:40:40;;;;;;;7.80;2.45;;;;;;;;;;5078842;28;20041;-81
2022/04/09 05:43:33;;;;;;;7.68;2.75;;;;;;;;;;5051664;28;20049;-81
2022/04/09 05:46:22;;;;;;;8.85;3.90;;;;;;;;;;5054711;28;20045;-81
2022/04/09 05:49:08;;;;;;;4.97;1.90;;;;;;;;;;5055229;28;20485;-83
2022/04/09 05:51:55;;;;;;;4.05;1.80;;;;;;;;;;5071990;28;20045;-83
2022/04/09 05:54:41;;;;;;;8.45;3.60;;;;;;;;;;5060695;28;20052;-81
2022/04/09 05:57:26;;;;;;;7.75;2.42;;;;;;;;;;5056152;28;20053;-81
2022/04/09 06:00:14;;;;;;;6.53;2.10;;;;;;;;;;5055822;28;20041;-83
2022/04/09 06:03:16;;;;;;;6.95;2.15;;;;;;;;;;5055867;28;20041;-84
2022/04/09 06:06:02;;;;;;;10.68;3.88;;;;;;;;;;5074164;28;20049;-81
2022/04/09 06:09:04;;;;;;;8.68;4.20;;;;;;;;;;5090013;28;20052;-83
2022/04/09 06:12:07;;;;;;;9.55;2.67;;;;;;;;;;5076774;28;20048;-82
2022/04/09 06:15:09;;;;;;;5.95;2.70;;;;;;;;;;5089556;28;20037;-83
2022/04/09 06:18:06;;;;;;;10.05;2.80;;;;;;;;;;5084077;28;20044;-84
2022/04/09 06:20:51;;;;;;;12.10;5.78;;;;;;;;;;5067714;28;20037;-85
2022/04/09 06:23:38;;;;;;;9.38;3.97;;;;;;;;;;5071508;28;20044;-86
2022/04/09 06:26:23;;;;;;;9.00;3.53;;;;;;;;;;5064418;28;20401;-81
2022/04/09 06:29:10;;;;;;;9.20;3.70;;;;;;;;;;5083003;28;20041;-83
2022/04/09 06:32:01;;;;;;;6.57;2.97;;;;;;;;;;5070118;28;20417;-85
2022/04/09 06:34:46;;;;;;;8.27;5.00;;;;;;;;;;5061229;28;20493;-83
2022/04/09 06:37:38;;;;;;;10.23;3.83;;;;;;;;;;5048816;28;20052;-85
2022/04/09 06:40:26;;;;;;;17.13;10.75;;;;;;;;;;5050602;28;20053;-82
2022/04/09 06:43:13;;;;;;;9.57;4.60;;;;;;;;;;5052430;28;20041;-83
2022/04/09 06:46:16;;;;;;;10.63;4.60;;;;;;;;;;5053226;28;20045;-84
2022/04/09 06:49:16;;;;;;;20.55;10.68;;;;;;;;;;5077761;28;20044;-84
2022/04/09 06:52:04;;;;;;;20.85;9.75;;;;;;;;;;5078904;28;20041;-83
2022/04/09 06:55:09;;;;;;;7.43;4.25;;;;;;;;;;5077165;28;20033;-84
2022/04/09 06:58:00;;;;;;;9.73;4.43;;;;;;;;;;5078157;28;20052;-85
2022/04/09 07:00:49;;;;;;;13.25;4.38;;;;;;;;;;5083633;28;20052;-85
2022/04/09 07:03:38;;;;;;;9.00;3.47;;;;;;;;;;5083518;28;20044;-82
2022/04/09 07:06:25;;;;;;;19.05;3.90;;;;;;;;;;5069565;28;20048;-84
2022/04/09 07:09:10;;;;;;;8.88;3.78;;;;;;;;;;5076884;28;20049;-84
2022/04/09 07:11:56;;;;;;;9.00;3.90;;;;;;;;;;5073038;28;20040;-82
2022/04/09 07:14:41;;;;;;;10.02;4.72;;;;;;;;;;5053879;28;20397;-86
2022/04/09 07:17:29;;;;;;;10.77;4.57;;;;;;;;;;5062544;28;20389;-85
2022/04/09 07:20:16;;;;;;;15.95;5.05;;;;;;;;;;5077175;28;20056;-82
2022/04/09 07:23:02;;;;;;;9.82;4.28;;;;;;;;;;5075880;28;20048;-84
2022/04/09 07:25:47;;;;;;;14.95;7.40;;;;;;;;;;5060353;28;20053;-83
2022/04/09 07:28:33;;;;;;;32.22;12.10;;;;;;;;;;5058953;28;20040;-85
2022/04/09 07:31:19;;;;;;;8.52;4.85;;;;;;;;;;5056922;28;20048;-85
2022/04/09 07:34:04;;;;;;;11.07;4.00;;;;;;;;;;5069326;28;20033;-84
2022/04/09 07:36:51;;;;;;;12.65;4.68;;;;;;;;;;5076053;28;20044;-84
2022/04/09 07:39:37;;;;;;;9.02;3.70;;;;;;;;;;5070939;28;20036;-86
2022/04/09 07:42:23;;;;;;;9.80;5.30;;;;;;;;;;5065784;28;20400;-85
2022/04/09 07:45:09;;;;;;;10.20;5.63;;;;;;;;;;5067975;28;20485;-84
2022/04/09 07:47:56;;;;;;;11.88;5.00;;;;;;;;;;5078434;28;20036;-83
2022/04/09 07:50:42;;;;;;;13.65;5.60;;;;;;;;;;5069759;28;20052;-84
2022/04/09 07:53:27;;;;;;;12.07;4.70;;;;;;;;;;5070491;28;20040;-83
2022/04/09 07:56:13;;;;;;;13.73;4.20;;;;;;;;;;5070149;28;20044;-85
2022/04/09 07:58:58;;;;;;;8.65;3.55;;;;;;;;;;5076601;28;20036;-81
2022/04/09 08:01:43;;;;;;;22.90;13.95;;;;;;;;;;5082703;28;20045;-82
2022/04/09 08:04:32;;;;;;;23.38;10.38;;;;;;;;;;5083107;28;20040;-83
2022/04/09 08:07:17;;;;;;;16.38;6.00;;;;;;;;;;5081166;28;20060;-82
2022/04/09 08:10:04;;;;;;;12.55;5.40;;;;;;;;;;5081535;28;20048;-81
2022/04/09 08:12:51;;;;;;;11.40;4.65;;;;;;;;;;5072840;28;20040;-80
2022/04/09 08:15:37;;;;;;;22.27;9.80;;;;;;;;;;5062258;28;20048;-80
2022/04/09 08:18:22;;;;;;;24.42;10.45;;;;;;;;;;5060973;28;20156;-84
2022/04/09 08:21:07;;;;;;;20.23;8.43;;;;;;;;;;5076094;28;20040;-82
2022/04/09 08:23:53;;;;;;;19.35;8.75;;;;;;;;;;5063938;28;20053;-81
2022/04/09 08:26:37;;;;;;;;;;;;;;;;;;5066609;28;20053;-81
2022/04/09 08:29:21;;;;;;;19.42;10.35;;;;;;;;;;5077140;28;19916;-82
2022/04/09 08:32:07;;;;;;;47.40;20.42;;;;;;;;;;5079509;28;20049;-82
2022/04/09 08:34:53;;;;;;;26.98;11.32;;;;;;;;;;5081256;28;20048;-81
2022/04/09 08:37:41;;;;;;;24.75;9.93;;;;;;;;;;5080115;28;20056;-81
2022/04/09 08:40:27;;;;;;;8.70;2.67;;;;;;;;;;5078583;28;20044;-82
2022/04/09 08:43:12;;;;;;;11.35;3.63;;;;;;;;;;5082223;28;20477;-82
2022/04/09 08:46:02;;;;;;;29.13;10.23;;;;;;;;;;5072989;28;20397;-81
2022/04/09 08:48:50;;;;;;;23.48;7.43;;;;;;;;;;5071468;28;20033;-82
2022/04/09 08:51:35;;;;;;;20.23;8.65;;;;;;;;;;5071822;28;20040;-82
2022/04/09 08:54:20;;;;;;;24.42;10.25;;;;;;;;;;5072630;28;20489;-80
2022/04/09 08:57:07;;;;;;;27.25;10.50;;;;;;;;;;5073843;28;20037;-82
2022/04/09 08:59:54;;;;;;;19.67;6.57;;;;;;;;;;5079039;28;20048;-81
2022/04/09 09:02:57;;;;;;;14.63;5.93;;;;;;;;;;5077419;28;20120;-80
2022/04/09 09:05:52;;;;;;;13.32;4.72;;;;;;;;;;5071953;28;20072;-82
2022/04/09 09:08:41;;;;;;;14.23;4.53;;;;;;;;;;5074768;28;20036;-83
2022/04/09 09:11:28;;;;;;;13.52;5.10;;;;;;;;;;5070629;28;20041;-82
2022/04/09 09:14:32;;;;;;;12.90;4.60;;;;;;;;;;5049643;28;20049;-81
2022/04/09 09:17:26;;;;;;;9.82;3.65;;;;;;;;;;5064721;28;20045;-80
2022/04/09 09:20:13;;;;;;;;;;;;;;;;;;5060284;28;20409;-82
2022/04/09 09:22:58;;;;;;;12.85;4.90;;;;;;;;;;5070636;28;20257;-85
2022/04/09 09:26:18;;;;;;;10.20;5.10;;;;;;;;;;5083406;28;20044;-84
2022/04/09 09:29:03;;;;;;;10.80;4.65;;;;;;;;;;5079334;28;20044;-86
2022/04/09 09:31:50;;;;;;;25.77;10.35;;;;;;;;;;5083547;28;20059;-84
2022/04/09 09:34:35;;;;;;;20.95;6.88;;;;;;;;;;5075582;28;20056;-84
2022/04/09 09:37:28;;;;;;;12.60;6.28;;;;;;;;;;5080910;28;20501;-81
2022/04/09 09:40:31;;;;;;;11.32;4.07;;;;;;;;;;5071255;28;20052;-82
2022/04/09 09:43:17;;;;;;;9.30;2.45;;;;;;;;;;5063463;28;20489;-84
2022/04/09 09:46:02;;;;;;;7.93;1.73;;;;;;;;;;5070281;28;20049;-82
2022/04/09 09:48:50;;;;;;;6.07;1.80;;;;;;;;;;5069900;28;20052;-83
2022/04/09 09:51:38;;;;;;;7.07;2.53;;;;;;;;;;5060748;28;20045;-85
2022/04/09 09:54:24;;;;;;;6.25;2.45;;;;;;;;;;5063163;28;20060;-81
2022/04/09 09:57:20;;;;;;;15.85;3.92;;;;;;;;;;5062957;28;20048;-83
2022/04/09 10:00:10;;;;;;;11.98;3.90;;;;;;;;;;5065999;28;20044;-87
2022/04/09 10:02:58;;;;;;;11.60;4.07;;;;;;;;;;5062964;28;20045;-83
2022/04/09 10:05:43;;;;;;;15.32;3.60;;;;;;;;;;5054850;28;20497;-82
2022/04/09 10:08:29;;;;;;;17.95;6.60;;;;;;;;;;5062409;28;20045;-82
2022/04/09 10:11:18;;;;;;;13.02;5.18;;;;;;;;;;5061052;28;20049;-84
2022/04/09 10:17:35;;;;;;;9.27;3.78;;;;;;;;;;4859884;23;20048;-78
2022/04/09 10:20:23;;;;;;;11.40;5.10;;;;;;;;;;5036145;28;20049;-82
2022/04/09 10:23:09;;;;;;;18.02;5.40;;;;;;;;;;5044034;28;20053;-82
2022/04/09 10:25:56;;;;;;;10.63;3.22;;;;;;;;;;5023915;28;20045;-79
2022/04/09 10:28:41;;;;;;;15.13;4.93;;;;;;;;;;5042785;28;20041;-82
2022/04/09 10:31:27;;;;;;;12.05;5.05;;;;;;;;;;5048184;28;20049;-81
2022/04/09 10:34:16;;;;;;;10.63;3.70;;;;;;;;;;5028287;28;20049;-85
2022/04/09 10:37:03;;;;;;;10.57;4.95;;;;;;;;;;5050305;28;20041;-81
2022/04/09 10:39:52;;;;;;;11.15;4.63;;;;;;;;;;5057874;28;20056;-79
2022/04/09 10:42:48;;;;;;;8.68;3.45;;;;;;;;;;5068064;28;20044;-78
2022/04/09 10:46:10;;;;;;;19.35;5.10;;;;;;;;;;5074080;28;20049;-79
2022/04/09 10:49:15;;;;;;;9.70;5.38;;;;;;;;;;5057572;28;20038;-82
2022/04/09 10:52:11;;;;;;;10.43;3.20;;;;;;;;;;5016986;28;20398;-79
2022/04/09 10:55:20;;;;;;;8.88;3.28;;;;;;;;;;5035610;28;20046;-80
2022/04/09 10:58:08;;;;;;;8.80;2.97;;;;;;;;;;5041936;28;20046;-82
2022/04/09 11:00:54;;;;;;;15.23;2.60;;;;;;;;;;5034669;28;20053;-80
2022/04/09 11:03:43;;;;;;;5.70;2.80;;;;;;;;;;5034668;28;20037;-80
2022/04/09 11:06:40;;;;;;;7.03;2.63;;;;;;;;;;5026112;28;20438;-82
2022/04/09 11:09:26;;;;;;;8.35;2.90;;;;;;;;;;5034486;28;20413;-80
2022/04/09 11:12:12;;;;;;;12.70;3.33;;;;;;;;;;5041622;28;20049;-79
2022/04/09 11:15:00;;;;;;;5.95;2.83;;;;;;;;;;5041119;28;20045;-83
2022/04/09 11:17:46;;;;;;;11.95;3.60;;;;;;;;;;5035544;28;20050;-84
2022/04/09 11:20:34;;;;;;;7.72;3.75;;;;;;;;;;5021972;28;20378;-82
2022/04/09 11:23:20;;;;;;;9.45;3.75;;;;;;;;;;5034503;28;20045;-83
2022/04/09 11:26:05;;;;;;;9.05;3.42;;;;;;;;;;5041147;28;20477;-82
2022/04/09 11:28:49;;;;;;;;;;;;;;;;;;5023976;28;20037;-82
2022/04/09 11:31:44;;;;;;;13.50;3.13;;;;;;;;;;5040463;28;19921;-82
2022/04/09 11:34:49;;;;;;;14.65;4.22;;;;;;;;;;5044329;28;20049;-82
2022/04/09 11:37:39;;;;;;;11.60;4.10;;;;;;;;;;5037147;28;20048;-83
2022/04/09 11:40:25;;;;;;;7.80;3.67;;;;;;;;;;5047428;28;20041;-82
2022/04/09 11:43:11;;;;;;;14.07;5.07;;;;;;;;;;5035981;28;20505;-82
2022/04/09 11:46:03;;;;;;;12.40;5.65;;;;;;;;;;5034770;28;20049;-80
2022/04/09 11:48:59;;;;;;;10.65;5.45;;;;;;;;;;5045642;28;20045;-80
2022/04/09 11:51:55;;;;;;;15.85;5.60;;;;;;;;;;5032281;28;20489;-80
2022/04/09 11:54:43;;;;;;;9.27;4.40;;;;;;;;;;5032070;28;20045;-82
2022/04/09 11:57:29;;;;;;;9.38;4.07;;;;;;;;;;5021461;28;20054;-82
2022/04/09 12:00:14;;;;;;;7.28;3.97;;;;;;;;;;5034677;28;20045;-79
2022/04/09 12:03:04;;;;;;;8.13;3.30;;;;;;;;;;5033904;28;20046;-83
2022/04/09 12:05:51;;;;;;;7.32;2.53;;;;;;;;;;5034117;28;20398;-80
2022/04/09 12:08:37;;;;;;;5.55;2.28;;;;;;;;;;5033915;28;20041;-80
2022/04/09 12:11:22;;;;;;;10.32;3.03;;;;;;;;;;5032342;28;20049;-82
2022/04/09 12:14:15;;;;;;;11.82;2.33;;;;;;;;;;5033089;28;20054;-82
2022/04/09 12:17:13;;;;;;;10.95;3.45;;;;;;;;;;5030518;28;20049;-84
2022/04/09 12:19:59;;;;;;;5.85;3.28;;;;;;;;;;5031850;28;20053;-82
2022/04/09 12:22:54;;;;;;;8.48;2.95;;;;;;;;;;5038071;28;20049;-80
2022/04/09 12:25:42;;;;;;;;;;;;;;;;;;5015146;28;20042;-81
2022/04/09 12:28:32;;;;;;;8.00;3.30;;;;;;;;;;5014105;28;19980;-81
2022/04/09 12:31:24;;;;;;;7.65;3.25;;;;;;;;;;5020989;28;20045;-81
2022/04/09 12:34:11;;;;;;;13.60;5.93;;;;;;;;;;5027147;28;20050;-79
2022/04/09 12:37:05;;;;;;;15.68;5.32;;;;;;;;;;5019283;28;20050;-80
2022/04/09 12:39:52;;;;;;;18.60;6.28;;;;;;;;;;5023630;28;20049;-77
2022/04/09 12:42:38;;;;;;;14.23;7.30;;;;;;;;;;5040418;28;20493;-82
2022/04/09 12:45:27;;;;;;;11.77;3.75;;;;;;;;;;5011034;28;20042;-82
2022/04/09 12:48:13;;;;;;;13.63;6.20;;;;;;;;;;5048437;28;20045;-83
2022/04/09 12:50:58;;;;;;;8.07;3.67;;;;;;;;;;5045622;28;20050;-81
2022/04/09 12:53:44;;;;;;;10.93;4.15;;;;;;;;;;5020900;28;20061;-80
2022/04/09 12:56:30;;;;;;;7.88;3.45;;;;;;;;;;5026730;28;20053;-82
2022/04/09 12:59:17;;;;;;;5.70;2.40;;;;;;;;;;5033587;28;20053;-84
2022/04/09 13:02:04;;;;;;;5.07;2.45;;;;;;;;;;5035459;28;20050;-80
2022/04/09 13:04:54;;;;;;;10.73;3.03;;;;;;;;;;5031417;28;20045;-84
2022/04/09 13:07:40;;;;;;;25.92;3.83;;;;;;;;;;5015154;28;20066;-84
2022/04/09 13:10:26;;;;;;;14.43;4.22;;;;;;;;;;5013978;28;20045;-85
2022/04/09 13:13:11;;;;;;;5.15;2.97;;;;;;;;;;5014850;28;20486;-81
2022/04/09 13:15:56;;;;;;;7.15;3.58;;;;;;;;;;5015433;28;20049;-81
2022/04/09 13:18:42;;;;;;;11.68;5.35;;;;;;;;;;5018260;28;20038;-80
2022/04/09 13:21:27;;;;;;;7.70;4.10;;;;;;;;;;5036812;28;20049;-83
2022/04/09 13:24:12;;;;;;;11.52;5.72;;;;;;;;;;5032308;28;20041;-80
2022/04/09 13:26:58;;;;;;;8.70;4.32;;;;;;;;;;5040606;28;20045;-78
2022/04/09 13:29:44;;;;;;;6.30;2.50;;;;;;;;;;5056638;28;20040;-83
2022/04/09 13:32:30;;;;;;;7.88;3.67;;;;;;;;;;5033182;28;20041;-79
2022/04/09 13:35:17;;;;;;;14.93;4.78;;;;;;;;;;5018017;28;20046;-83
2022/04/09 13:38:03;;;;;;;16.58;6.10;;;;;;;;;;5040229;28;20049;-80
2022/04/09 13:40:48;;;;;;;15.90;8.95;;;;;;;;;;5033988;28;20390;-79
2022/04/09 13:43:33;;;;;;;21.45;9.45;;;;;;;;;;5048650;28;20049;-81
2022/04/09 13:46:19;;;;;;;18.58;8.25;;;;;;;;;;5021954;28;20049;-81
2022/04/09 13:49:04;;;;;;;17.02;9.05;;;;;;;;;;5043232;28;20049;-82
2022/04/09 13:51:49;;;;;;;12.13;5.82;;;;;;;;;;5036609;28;20133;-81
2022/04/09 13:54:35;;;;;;;14.38;5.78;;;;;;;;;;5034398;28;20053;-79
2022/04/09 13:57:20;;;;;;;10.65;3.28;;;;;;;;;;5019576;28;20050;-82
2022/04/09 14:00:06;;;;;;;9.27;3.80;;;;;;;;;;5023922;28;20046;-79
2022/04/09 14:02:51;;;;;;;10.02;3.17;;;;;;;;;;5032787;28;20045;-81
2022/04/09 14:05:37;;;;;;;19.55;10.02;;;;;;;;;;5036392;28;20041;-83
2022/04/09 14:08:23;;;;;;;5.93;3.47;;;;;;;;;;5037097;28;20422;-81
2022/04/09 14:11:08;;;;;;;25.50;12.25;;;;;;;;;;5039781;28;20046;-81
2022/04/09 14:13:54;;;;;;;14.52;6.75;;;;;;;;;;5027536;28;20045;-82
2022/04/09 14:16:40;;;;;;;16.88;6.38;;;;;;;;;;5014717;28;20041;-82
2022/04/09 14:19:25;;;;;;;21.85;8.13;;;;;;;;;;5036957;28;20096;-80
2022/04/09 14:22:11;;;;;;;9.27;3.85;;;;;;;;;;5043377;28;20046;-83
2022/04/09 14:24:57;;;;;;;4.47;2.47;;;;;;;;;;5037550;28;20049;-83
2022/04/09 14:27:43;;;;;;;9.18;2.47;;;;;;;;;;5025902;28;20378;-80
2022/04/09 14:30:29;;;;;;;7.80;2.80;;;;;;;;;;5023707;28;20045;-81
2022/04/09 14:33:16;;;;;;;8.20;3.35;;;;;;;;;;5043474;28;20436;-82
2022/04/09 14:36:01;;;;;;;11.85;4.57;;;;;;;;;;5018693;28;20054;-81
2022/04/09 14:38:47;;;;;;;4.90;1.73;;;;;;;;;;5017659;28;20505;-80
2022/04/09 14:41:33;;;;;;;5.93;2.35;;;;;;;;;;5042946;28;20049;-81
2022/04/09 14:44:19;;;;;;;2.92;1.38;;;;;;;;;;5035943;28;20041;-82
2022/04/09 14:47:06;;;;;;;10.43;3.85;;;;;;;;;;5032056;28;20057;-81
2022/04/09 14:49:52;;;;;;;5.55;2.92;;;;;;;;;;5004654;28;20045;-81
2022/04/09 14:52:40;;;;;;;3.90;1.60;;;;;;;;;;5018650;28;20058;-83
2022/04/09 14:55:24;;;;;;;7.93;2.08;;;;;;;;;;5023421;28;20046;-82
2022/04/09 14:58:10;;;;;;;4.72;2.30;;;;;;;;;;5035174;28;20049;-80
2022/04/09 15:00:56;;;;;;;8.82;2.85;;;;;;;;;;5035337;28;20057;-81
2022/04/09 15:03:41;;;;;;;6.82;2.60;;;;;;;;;;5035253;28;20486;-82
2022/04/09 15:06:29;;;;;;;5.60;3.30;;;;;;;;;;5034941;28;20041;-81
2022/04/09 15:09:15;;;;;;;8.15;4.80;;;;;;;;;;5035371;28;20046;-82
2022/04/09 15:12:02;;;;;;;15.68;6.50;;;;;;;;;;5033665;28;20046;-83
2022/04/09 15:14:47;;;;;;;16.25;5.50;;;;;;;;;;5041615;28;20053;-81
2022/04/09 15:17:32;;;;;;;12.70;6.10;;;;;;;;;;5034654;28;20041;-84
2022/04/09 15:20:18;;;;;;;4.93;2.40;;;;;;;;;;5039480;28;20437;-81
2022/04/09 15:23:04;;;;;;;6.40;2.20;;;;;;;;;;5035274;28;20046;-81
2022/04/09 15:25:50;;;;;;;8.02;2.67;;;;;;;;;;5034530;28;20053;-81
2022/04/09 15:28:35;;;;;;;8.10;4.47;;;;;;;;;;5035314;28;20037;-81
2022/04/09 15:31:21;;;;;;;7.20;3.60;;;;;;;;;;5034961;28;20053;-81
2022/04/09 15:34:06;;;;;;;11.15;3.40;;;;;;;;;;5034557;28;20045;-83
2022/04/09 15:36:51;;;;;;;8.38;3.90;;;;;;;;;;5035244;28;20045;-80
2022/04/09 15:39:37;;;;;;;6.93;3.22;;;;;;;;;;5040791;28;20045;-80
2022/04/09 15:42:23;;;;;;;12.93;4.20;;;;;;;;;;5024988;28;20486;-79
2022/04/09 15:45:10;;;;;;;17.73;7.72;;;;;;;;;;5039545;28;20049;-82
2022/04/09 15:47:56;;;;;;;13.70;5.40;;;;;;;;;;5032796;28;20058;-78
2022/04/09 15:50:42;;;;;;;13.90;4.70;;;;;;;;;;5037531;28;20078;-80
2022/04/09 15:53:27;;;;;;;8.25;4.32;;;;;;;;;;5033315;28;20049;-82
2022/04/09 15:56:14;;;;;;;14.95;5.55;;;;;;;;;;5027456;28;20041;-79
2022/04/09 15:58:59;;;;;;;7.35;2.85;;;;;;;;;;5027572;28;20041;-79
2022/04/09 16:01:48;;;;;;;9.60;5.82;;;;;;;;;;5020505;28;20054;-81
2022/04/09 16:04:36;;;;;;;11.63;4.28;;;;;;;;;;5014965;28;20045;-84
2022/04/09 16:07:22;;;;;;;11.48;3.00;;;;;;;;;;5032947;28;20041;-80
2022/04/09 16:10:10;;;;;;;12.57;2.53;;;;;;;;;;5042918;28;20046;-82
2022/04/09 16:12:55;;;;;;;16.50;4.28;;;;;;;;;;5054855;28;20410;-80
2022/04/09 16:15:41;;;;;;;6.75;3.47;;;;;;;;;;5041022;28;20049;-80
2022/04/09 16:18:27;;;;;;;8.70;4.43;;;;;;;;;;5035935;28;20037;-79
2022/04/09 16:21:20;;;;;;;9.45;5.38;;;;;;;;;;5035141;28;20045;-81
2022/04/09 16:24:05;;;;;;;15.45;7.25;;;;;;;;;;5019094;28;20439;-81
2022/04/09 16:26:51;;;;;;;9.73;6.38;;;;;;;;;;5014545;28;20471;-77
2022/04/09 16:29:37;;;;;;;10.15;5.72;;;;;;;;;;5039124;28;20409;-81
2022/04/09 16:32:22;;;;;;;12.18;5.95;;;;;;;;;;5025402;28;20053;-80
2022/04/09 16:35:08;;;;;;;10.32;6.13;;;;;;;;;;5006453;28;20050;-81
2022/04/09 16:37:53;;;;;;;19.42;6.47;;;;;;;;;;5014887;28;20049;-79
2022/04/09 16:40:39;;;;;;;15.18;7.40;;;;;;;;;;5013632;28;20042;-81
2022/04/09 16:43:24;;;;;;;14.23;4.95;;;;;;;;;;5006057;28;20050;-80
2022/04/09 16:46:09;;;;;;;14.27;5.03;;;;;;;;;;5028965;28;20045;-82